Latest Weather Observations for Moranbah Airport

IDQ60801

Issued at 11:32 am EST Saturday 19 August 2017 (issued every 30 minutes, with the page automatically refreshed every 10 minutes)

About weather observations | Map of weather stations | Latest weather observations for QLD | Other Formats
Station Details ID: 034035 Name: MORANBAH AIRPORT Lat: -22.06 Lon: 148.08 Height: 232.2 m
Data from the previous 72 hours. | See also: Recent months at Moranbah Airport
Date/Time
EST
Temp
°C
App
Temp
°C
Dew
Point
°C
Rel
Hum
%
Delta-T
°C
Wind Press
QNH
hPa
Press
MSL
hPa
Rain since
9am
mm
Dir  Spd
km/h
Gust
km/h
Spd
kts
Gust
kts
19/11:30am 22.1 15.4 -7.6 13 11.6 SSE 20 30 11 16 1020.2 1019.7 0.0
19/11:00am 21.2 14.3 -6.4 15 10.9 SSE 22 33 12 18 1020.7 1020.2 0.0
19/10:30am 21.1 12.8 -4.9 17 10.6 SSE 30 39 16 21 1021.2 1020.8 0.0
19/10:00am 20.1 11.7 -5.7 17 10.3 SE 30 39 16 21 1021.5 1021.0 0.0
19/09:30am 19.6 9.9 -5.3 18 10.0 SE 37 46 20 25 1021.8 1021.3 0.0
19/09:00am 19.6 10.9 -5.3 18 9.9 SE 32 41 17 22 1021.7 1021.2 0.0
19/08:34am 19.1 10.7 -5.7 18 9.8 SSE 30 48 16 26 1021.6 1021.1 0.0
19/08:30am 19.2 11.3 -5.0 19 9.7 SSE 28 35 15 19 1021.6 1021.1 0.0
19/08:00am 17.1 11.7 -4.2 23 8.5 SE 15 22 8 12 1021.5 1021.0 0.0
19/07:30am 14.5 11.2 0.4 38 6.1 SSE 7 11 4 6 1020.8 1020.3 0.0
19/07:29am 13.8 10.7 0.1 39 5.8 SSE 6 11 3 6 1020.8 1020.3 0.0
19/07:00am 8.8 6.9 0.3 55 3.4 CALM 0 0 0 0 1020.5 1020.0 0.0
19/06:30am 9.3 5.1 -1.1 48 4.1 ESE 11 11 6 6 1020.1 1019.6 0.0
19/06:00am 10.0 6.2 -0.5 48 4.2 SE 9 11 5 6 1019.8 1019.3 0.0
19/05:30am 9.9 6.1 -0.9 47 4.3 SE 9 11 5 6 1019.4 1018.9 0.0
19/05:00am 11.3 6.8 -0.5 44 4.8 SE 13 15 7 8 1019.2 1018.7 0.0
19/04:30am 12.0 7.5 -0.5 42 5.1 ESE 13 13 7 7 1018.8 1018.3 0.0
19/04:00am 12.7 8.2 -0.5 40 5.4 ESE 13 15 7 8 1018.6 1018.1 0.0
19/03:30am 14.6 10.4 -0.7 35 6.4 E 11 13 6 7 1018.5 1018.0 0.0
19/03:00am 15.1 11.1 -1.9 31 7.0 ESE 9 11 5 6 1018.5 1018.0 0.0
19/02:30am 17.8 12.7 -1.9 26 8.3 SSE 15 17 8 9 1018.3 1017.8 0.0
19/02:00am 17.9 12.7 -2.9 24 8.6 SSE 15 17 8 9 1018.4 1017.9 0.0
19/01:30am 20.2 14.1 -2.2 22 9.6 SSE 20 24 11 13 1018.3 1017.8 0.0
19/01:00am 20.2 14.8 -1.6 23 9.4 S 17 20 9 11 1018.4 1017.9 0.0
19/12:30am 19.8 15.2 1.3 29 8.5 SSE 15 20 8 11 1018.4 1017.9 0.0
19/12:00am 18.1 15.4 3.6 38 6.8 E 7 9 4 5 1018.3 1017.8 0.0
 
Date/Time
EST
Temp
°C
App
Temp
°C
Dew
Point
°C
Rel
Hum
%
Delta-T
°C
Wind Press
QNH
hPa
Press
MSL
hPa
Rain since
9am
mm
Dir  Spd
km/h
Gust
km/h
Spd
kts
Gust
kts
18/11:30pm 18.3 16.1 5.2 42 6.4 E 6 7 3 4 1018.3 1017.8 0.0
18/11:00pm 21.5 17.7 4.1 32 8.5 S 13 17 7 9 1018.3 1017.8 0.0
18/10:30pm 20.9 17.1 4.0 33 8.2 SSE 13 15 7 8 1018.0 1017.5 0.0
18/10:00pm 21.9 18.1 4.0 31 8.8 S 13 15 7 8 1017.9 1017.4 0.0
18/09:30pm 22.4 18.6 4.0 30 9.1 S 13 17 7 9 1017.7 1017.2 0.0
18/09:00pm 22.4 18.6 4.0 30 9.0 SSW 13 17 7 9 1017.5 1016.9 0.0
18/08:30pm 23.1 19.0 4.1 29 9.4 S 15 19 8 10 1017.2 1016.6 0.0
18/08:00pm 23.5 20.1 4.0 28 9.7 S 11 13 6 7 1016.9 1016.3 0.0
18/07:30pm 24.7 21.3 3.9 26 10.4 SSW 11 13 6 7 1016.4 1015.9 0.0
18/07:00pm 25.0 21.1 3.6 25 10.6 S 13 15 7 8 1016.0 1015.5 0.0
18/06:30pm 26.3 22.4 3.5 23 11.4 SSW 13 15 7 8 1015.6 1015.1 0.0
18/06:00pm 27.6 24.1 3.3 21 12.2 SSW 11 13 6 7 1015.3 1014.8 0.0
18/05:30pm 30.1 25.8 3.2 18 13.7 SW 15 20 8 11 1015.0 1014.5 0.0
18/05:00pm 31.5 27.6 3.5 17 14.5 SSW 13 19 7 10 1014.7 1014.2 0.0
18/04:30pm 32.1 30.1 7.0 21 13.8 NE 7 15 4 8 1014.4 1013.9 0.0
18/04:00pm 32.1 30.4 8.4 23 13.3 SSE 7 13 4 7 1014.2 1013.7 0.0
18/03:30pm 32.2 30.1 9.7 25 12.9 SE 11 20 6 11 1014.2 1013.7 0.0
18/03:00pm 31.5 29.2 9.1 25 12.7 SE 11 19 6 10 1014.4 1013.9 0.0
18/02:30pm 31.7 28.9 8.7 24 13.0 SW 13 19 7 10 1014.6 1014.1 0.0
18/02:00pm 31.1 28.4 8.8 25 12.5 S 13 32 7 17 1015.0 1014.5 0.0
18/01:30pm 31.3 27.8 8.9 25 12.6 ESE 17 26 9 14 1015.3 1014.8 0.0
18/01:00pm 31.1 27.9 9.9 27 12.1 SSE 17 28 9 15 1015.8 1015.3 0.0
18/12:30pm 30.2 27.1 10.2 29 11.5 ESE 17 26 9 14 1016.3 1015.8 0.0
18/12:00pm 30.2 27.5 11.7 32 10.8 ESE 17 22 9 12 1016.9 1016.3 0.0
18/11:30am 29.9 27.0 12.3 33 10.4 SE 19 26 10 14 1017.5 1016.9 0.0
18/11:00am 28.3 25.9 12.6 38 9.3 SE 17 24 9 13 1018.0 1017.5 0.0
18/10:30am 27.8 26.0 14.4 43 8.1 SE 17 26 9 14 1018.4 1017.9 0.0
18/10:00am 26.5 25.4 14.3 47 7.3 SE 13 20 7 11 1018.6 1018.1 0.0
18/09:30am 24.2 24.8 14.3 54 5.9 NE 4 9 2 5 1018.7 1018.2 0.0
18/09:00am 22.3 23.1 14.9 63 4.4 N 4 7 2 4 1018.6 1018.1 0.0
18/08:30am 20.7 20.9 15.7 73 3.0 NNW 9 11 5 6 1018.4 1017.9 0.0
18/08:00am 19.3 19.7 15.2 77 2.4 N 7 9 4 5 1018.2 1017.7 0.0
18/07:30am 17.2 17.3 14.5 84 1.6 N 7 9 4 5 1017.7 1017.2 0.0
18/07:00am 13.9 14.2 12.3 90 0.9 NNW 2 7 1 4 1017.5 1016.9 0.0
18/06:30am 14.7 15.8 13.6 93 0.6 CALM 0 0 0 0 1017.1 1016.5 0.0
18/06:00am 14.9 14.8 13.4 91 0.8 NW 6 7 3 4 1016.5 1016.0 0.0
18/05:30am 15.1 14.9 13.1 88 1.1 W 6 7 3 4 1015.9 1015.4 0.0
18/05:00am 15.1 14.4 13.1 88 1.1 WNW 9 11 5 6 1015.5 1015.0 0.0
18/04:30am 14.7 14.1 12.4 86 1.3 WNW 7 9 4 5 1015.2 1014.7 0.0
18/04:00am 14.7 14.1 11.7 82 1.6 NW 6 7 3 4 1015.0 1014.5 0.0
18/03:30am 15.2 14.4 11.6 79 2.0 NNW 7 7 4 4 1015.0 1014.5 0.0
18/03:00am 15.1 13.2 10.5 74 2.4 N 11 13 6 7 1015.1 1014.6 0.0
18/02:30am 18.2 17.2 12.4 69 3.3 SSW 9 11 5 6 1015.4 1014.9 0.0
18/02:00am 16.8 14.6 10.9 68 3.2 WSW 13 32 7 17 1015.7 1015.2 0.0
18/01:30am 17.3 16.2 10.0 62 3.9 NW 6 7 3 4 1014.9 1014.4 0.0
18/01:00am 17.6 16.4 9.5 59 4.3 WNW 6 7 3 4 1015.0 1014.5 0.0
18/12:30am 17.1 15.6 9.3 60 4.1 WNW 7 9 4 5 1015.1 1014.6 0.0
18/12:00am 15.6 13.3 7.6 59 4.0 W 9 9 5 5 1015.2 1014.7 0.0
 
Date/Time
EST
Temp
°C
App
Temp
°C
Dew
Point
°C
Rel
Hum
%
Delta-T
°C
Wind Press
QNH
hPa
Press
MSL
hPa
Rain since
9am
mm
Dir  Spd
km/h
Gust
km/h
Spd
kts
Gust
kts
17/11:30pm 17.3 17.0 8.7 57 4.5 CALM 0 0 0 0 1015.2 1014.7 0.0
17/11:00pm 17.3 16.8 7.9 54 4.8 CALM 0 0 0 0 1015.2 1014.7 0.0
17/10:30pm 18.4 18.0 8.4 52 5.2 CALM 0 0 0 0 1015.3 1014.8 0.0
17/10:00pm 19.7 19.3 8.4 48 5.9 CALM 0 0 0 0 1015.2 1014.7 0.0
17/09:30pm 21.6 20.4 9.5 46 6.6 NNW 6 6 3 3 1015.2 1014.7 0.0
17/09:00pm 21.1 19.1 8.7 45 6.6 N 9 13 5 7 1015.2 1014.7 0.0
17/08:30pm 20.4 18.7 7.7 44 6.6 WSW 6 7 3 4 1014.9 1014.4 0.0
17/08:00pm 21.4 19.7 7.6 41 7.2 WSW 6 7 3 4 1014.7 1014.2 0.0
17/07:30pm 24.4 22.6 8.0 35 8.8 SW 7 9 4 5 1014.5 1014.0 0.0
17/07:00pm 24.2 22.0 7.8 35 8.8 SW 9 13 5 7 1013.9 1013.4 0.0
17/06:30pm 26.7 24.8 7.7 30 10.3 WSW 7 9 4 5 1013.5 1012.9 0.0
17/06:00pm 28.7 26.7 7.3 26 11.6 NW 7 7 4 4 1013.0 1012.4 0.0
17/05:30pm 31.3 29.1 7.7 23 13.1 NW 9 13 5 7 1012.8 1012.2 0.0
17/05:00pm 32.3 30.3 7.2 21 13.9 NW 7 17 4 9 1012.5 1011.9 0.0
17/04:30pm 32.2 28.9 6.4 20 14.0 NNW 13 20 7 11 1012.3 1011.7 0.0
17/04:00pm 32.3 29.9 7.2 21 13.9 W 9 15 5 8 1012.0 1011.5 0.0
17/03:30pm 32.7 30.8 7.5 21 14.0 N 7 15 4 8 1012.0 1011.5 0.0
17/03:00pm 32.4 30.4 8.6 23 13.4 NW 9 17 5 9 1012.4 1011.8 0.0
17/02:30pm 31.9 29.4 8.2 23 13.3 W 11 17 6 9 1012.7 1012.1 0.0
17/02:00pm 31.4 29.4 10.2 27 12.2 WNW 11 17 6 9 1013.0 1012.4 0.0
17/01:30pm 31.7 30.2 12.0 30 11.7 W 11 22 6 12 1013.5 1012.9 0.0
17/01:00pm 30.8 29.6 11.7 31 11.2 W 9 20 5 11 1014.0 1013.5 0.0
17/12:30pm 29.8 28.3 11.8 33 10.6 NNE 11 17 6 9 1014.4 1013.9 0.0
17/12:00pm 29.0 27.4 12.8 36 9.6 NNW 13 22 7 12 1014.9 1014.4 0.0
17/11:30am 27.9 26.3 12.7 39 9.0 WNW 13 20 7 11 1015.6 1015.1 0.0
17/11:00am 26.6 25.7 13.7 45 7.7 NNW 11 17 6 9 1016.2 1015.7 0.0
17/10:30am 25.7 24.0 13.5 46 7.2 NNW 15 24 8 13 1016.8 1016.2 0.0
17/10:00am 24.5 22.5 14.0 52 6.2 NNW 17 24 9 13 1017.2 1016.6 0.0
17/09:30am 23.5 22.0 15.3 60 5.0 NNW 17 24 9 13 1017.2 1016.6 0.0
17/09:00am 22.2 21.2 15.5 66 4.0 NW 15 19 8 10 1017.2 1016.6 0.0
17/08:30am 20.2 19.0 15.0 72 3.1 NW 15 20 8 11 1016.9 1016.3 0.0
17/08:00am 18.8 17.8 15.5 81 2.0 WNW 15 20 8 11 1016.6 1016.1 0.0
17/07:30am 16.5 16.3 14.7 89 1.0 WNW 9 11 5 6 1016.4 1015.9 0.0
17/07:00am 13.9 12.8 13.1 95 0.4 WSW 11 11 6 6 1016.2 1015.7 0.0
17/06:30am 13.8 13.0 13.0 95 0.4 W 9 11 5 6 1016.0 1015.5 0.0
17/06:00am 13.8 13.1 13.2 96 0.3 W 9 9 5 5 1015.7 1015.2 0.0
17/05:30am 12.8 11.9 11.5 92 0.7 W 7 9 4 5 1015.3 1014.8 0.0
17/05:00am 13.5 12.9 12.2 92 0.7 W 7 9 4 5 1015.0 1014.5 0.0
17/04:30am 14.1 13.6 12.7 91 0.8 WNW 7 7 4 4 1015.0 1014.5 0.0
17/04:00am 15.2 14.6 13.6 90 0.9 NW 9 11 5 6 1014.8 1014.3 0.0
17/03:30am 15.0 14.5 13.7 92 0.7 NW 9 9 5 5 1014.9 1014.4 0.0
17/03:00am 15.0 14.6 12.9 87 1.2 NNW 7 9 4 5 1014.9 1014.4 0.0
17/02:30am 15.8 15.8 13.5 86 1.3 NNW 6 7 3 4 1015.2 1014.7 0.0
17/02:00am 16.7 16.6 13.8 83 1.7 N 7 9 4 5 1015.3 1014.8 0.0
17/01:30am 16.6 15.9 13.3 81 1.9 N 9 13 5 7 1015.4 1014.9 0.0
17/01:00am 17.1 16.9 13.6 80 2.0 N 7 9 4 5 1015.5 1015.0 0.0
17/12:30am 17.7 17.1 13.4 76 2.5 N 9 13 5 7 1015.5 1015.0 0.0
17/12:00am 17.8 16.7 13.1 74 2.7 N 11 13 6 7 1015.6 1015.1 0.0
 
Date/Time
EST
Temp
°C
App
Temp
°C
Dew
Point
°C
Rel
Hum
%
Delta-T
°C
Wind Press
QNH
hPa
Press
MSL
hPa
Rain since
9am
mm
Dir  Spd
km/h
Gust
km/h
Spd
kts
Gust
kts
16/11:30pm 16.7 17.3 11.8 73 2.7 CALM 0 0 0 0 1015.7 1015.2 0.0
16/11:00pm 17.5 17.9 12.4 72 2.9 NNW 2 6 1 3 1015.5 1015.0 0.0
16/10:30pm 17.7 17.0 11.9 69 3.2 NNW 7 9 4 5 1015.3 1014.8 0.0
16/10:00pm 16.9 16.7 10.3 65 3.5 NNE 2 6 1 3 1015.1 1014.6 0.0
16/09:30pm 18.5 18.9 11.3 63 4.0 CALM 0 4 0 2 1015.0 1014.5 0.0
16/09:00pm 18.9 18.1 11.0 60 4.3 NNE 6 6 3 3 1014.9 1014.4 0.0
16/08:30pm 20.9 19.6 11.3 54 5.4 NE 9 9 5 5 1014.7 1014.2 0.0
16/08:00pm 21.8 19.7 11.2 51 5.9 NE 13 15 7 8 1014.6 1014.1 0.0
16/07:30pm 20.9 18.6 8.9 46 6.4 ENE 11 17 6 9 1014.2 1013.7 0.0
16/07:00pm 22.8 21.4 8.9 41 7.5 NNW 6 7 3 4 1013.7 1013.1 0.0
16/06:30pm 24.3 22.7 8.7 37 8.5 NW 7 7 4 4 1013.5 1012.9 0.0
16/06:00pm 26.4 24.8 8.8 33 9.7 NW 7 7 4 4 1013.3 1012.7 0.0
16/05:30pm 28.7 26.9 9.4 30 10.8 NW 9 11 5 6 1013.1 1012.5 0.0
16/05:00pm 29.4 26.2 8.5 27 11.6 NNW 15 19 8 10 1012.9 1012.3 0.0
16/04:30pm 30.1 28.2 9.1 27 11.8 NNW 9 17 5 9 1012.7 1012.1 0.0
16/04:00pm 29.9 27.6 8.9 27 11.8 N 11 20 6 11 1012.6 1012.0 0.0
16/03:30pm 30.0 27.3 9.0 27 11.8 NW 13 20 7 11 1012.6 1012.0 0.0
16/03:00pm 30.2 27.5 10.2 29 11.5 NNW 15 22 8 12 1012.9 1012.3 0.0
16/02:30pm 29.4 26.3 9.0 28 11.4 NNW 15 24 8 13 1013.3 1012.7 0.0
16/02:00pm 29.4 26.8 9.5 29 11.2 N 13 20 7 11 1013.8 1013.2 0.0
16/01:30pm 28.4 25.9 11.0 34 10.0 NNW 15 24 8 13 1014.4 1013.9 0.0
16/01:00pm 28.0 26.2 10.7 34 9.9 NW 11 20 6 11 1015.0 1014.5 0.0
16/12:30pm 27.1 25.5 11.6 38 9.0 NNW 11 20 6 11 1015.6 1015.1 0.0
16/12:00pm 26.2 23.9 11.9 41 8.3 WNW 15 22 8 12 1016.4 1015.9 0.0

Other Formats:

Comma delimited format used in spreadsheet applications
http://www.bom.gov.au/fwo/IDQ60801/IDQ60801.94397.axf

JavaScript Object Notation format (JSON) in row-major order
http://www.bom.gov.au/fwo/IDQ60801/IDQ60801.94397.json